Time;durP1;ratioP1;P1;durP2;ratioP2;P2;SDS_P1;SDS_P2;PMS_P1;PMS_P2;Temp;Humidity;BMP_temperature;BMP_pressure;BME280_temperature;BME280_humidity;BME280_pressure;Samples;Min_cycle;Max_cycle;Signal;HPM_P1;HPM_P2
2023/07/05 00:02:01;;;;;;;2.53;2.33;;;;;;;24.59;53.24;97141.22;5020501;28;20232;-27
2023/07/05 00:04:27;;;;;;;2.60;2.40;;;;;;;24.59;53.23;97128.38;5020642;28;20205;-27
2023/07/05 00:06:54;;;;;;;3.80;2.73;;;;;;;24.60;53.58;97126.69;5026139;28;20205;-27
2023/07/05 00:09:20;;;;;;;3.40;2.50;;;;;;;24.59;53.85;97130.06;5029010;28;20193;-27
2023/07/05 00:11:47;;;;;;;2.60;2.40;;;;;;;24.60;53.84;97124.13;5019485;28;20642;-27
2023/07/05 00:14:14;;;;;;;2.80;2.50;;;;;;;24.59;53.57;97125.81;5018830;28;20202;-27
2023/07/05 00:16:40;;;;;;;2.70;2.30;;;;;;;24.60;53.39;97129.25;5025002;28;20275;-27
2023/07/05 00:19:08;;;;;;;2.43;2.23;;;;;;;24.60;53.40;97129.25;5024194;28;20311;-31
2023/07/05 00:21:34;;;;;;;2.80;2.60;;;;;;;24.60;53.80;97129.25;5022418;28;20812;-27
2023/07/05 00:24:01;;;;;;;2.33;2.03;;;;;;;24.61;53.43;97130.97;5021936;28;20251;-26
2023/07/05 00:26:28;;;;;;;3.03;2.53;;;;;;;24.60;53.69;97132.66;5019399;28;20233;-27
2023/07/05 00:28:55;;;;;;;3.93;2.87;;;;;;;24.60;53.59;97124.97;5018271;28;20272;-27
2023/07/05 00:31:22;;;;;;;3.60;2.57;;;;;;;24.60;53.84;97124.97;5032705;28;20249;-27
2023/07/05 00:33:48;;;;;;;2.80;2.50;;;;;;;24.60;53.60;97126.69;5028570;28;20676;-27
2023/07/05 00:36:15;;;;;;;3.07;2.47;;;;;;;24.60;53.68;97124.97;5020863;28;20202;-27
2023/07/05 00:38:42;;;;;;;4.03;2.30;;;;;;;24.60;53.28;97124.13;5026097;28;20300;-27
2023/07/05 00:41:08;;;;;;;2.73;2.43;;;;;;;24.60;53.59;97122.38;5019779;28;20259;-27
2023/07/05 00:43:35;;;;;;;2.30;2.10;;;;;;;24.56;53.92;97118.06;5029006;28;20545;-27
2023/07/05 00:46:27;;;;;;;3.50;2.30;;;;;;;24.60;53.66;97122.38;5028484;28;20280;-27
2023/07/05 00:49:14;;;;;;;2.87;2.47;;;;;;;24.60;53.60;97124.13;5009146;28;20233;-27
2023/07/05 00:51:55;;;;;;;4.03;2.37;;;;;;;24.60;53.66;97132.66;4998621;28;20235;-27
2023/07/05 00:54:31;;;;;;;2.53;2.33;;;;;;;24.59;53.42;97128.38;5019773;28;20347;-26
2023/07/05 00:57:04;;;;;;;2.50;2.30;;;;;;;24.59;53.99;97135.22;5002814;28;20293;-27
2023/07/05 00:59:34;;;;;;;2.23;2.03;;;;;;;24.60;53.50;97136.97;4995622;28;20225;-27
2023/07/05 01:02:01;;;;;;;2.87;2.47;;;;;;;24.60;53.69;97145.50;5003120;28;20225;-27
2023/07/05 01:04:31;;;;;;;2.50;2.30;;;;;;;24.59;53.54;97146.38;5020693;28;20206;-27
2023/07/05 01:06:58;;;;;;;2.20;2.00;;;;;;;24.60;53.99;97150.66;4988495;28;20259;-27
2023/07/05 01:09:26;;;;;;;2.50;2.30;;;;;;;24.59;53.77;97148.94;5022579;28;20626;-27
2023/07/05 01:12:02;;;;;;;2.60;2.20;;;;;;;24.58;53.46;97177.19;5021109;28;20217;-27
2023/07/05 01:14:44;;;;;;;2.30;2.10;;;;;;;24.58;53.42;97238.84;4990997;28;20247;-27
2023/07/05 01:17:14;;;;;;;2.40;2.20;;;;;;;24.57;53.66;97221.72;5022510;28;20193;-27
2023/07/05 01:19:53;;;;;;;2.30;2.10;;;;;;;24.58;53.77;97214.03;5005529;28;20229;-27
2023/07/05 01:22:43;;;;;;;2.63;2.30;;;;;;;24.59;53.48;97225.16;5029250;28;20706;-27
2023/07/05 01:25:35;;;;;;;2.40;2.20;;;;;;;24.56;53.99;97213.13;5004113;28;20576;-27
2023/07/05 01:28:40;;;;;;;3.77;2.27;;;;;;;24.56;53.77;97210.56;5030298;28;20679;-27
2023/07/05 01:31:30;;;;;;;2.40;2.20;;;;;;;24.55;53.73;97214.00;5007583;28;20608;-27
2023/07/05 01:34:25;;;;;;;2.27;2.07;;;;;;;24.55;54.13;97208.84;5022882;28;20297;-27
2023/07/05 01:36:51;;;;;;;3.10;2.60;;;;;;;24.54;54.16;97199.41;5006239;28;20260;-27
2023/07/05 01:39:18;;;;;;;4.33;2.57;;;;;;;24.54;54.09;97194.25;5004212;28;20272;-27
2023/07/05 01:41:44;;;;;;;3.07;2.50;;;;;;;24.54;54.17;97194.25;5022393;28;20230;-27
2023/07/05 01:44:11;;;;;;;2.70;2.33;;;;;;;24.55;53.85;97182.28;5027400;28;20206;-27
2023/07/05 01:46:47;;;;;;;2.30;2.10;;;;;;;24.54;53.84;97183.97;5001339;28;20194;-27
2023/07/05 01:49:22;;;;;;;3.23;2.17;;;;;;;24.54;53.88;97178.00;4991972;28;20661;-27
2023/07/05 01:52:00;;;;;;;2.40;2.20;;;;;;;24.54;53.76;97163.44;5025569;28;20253;-27
2023/07/05 01:54:49;;;;;;;2.60;2.40;;;;;;;24.54;53.93;97173.72;5002293;28;20216;-27
2023/07/05 01:57:20;;;;;;;2.77;2.30;;;;;;;24.54;54.11;97160.84;5012018;28;20202;-27
2023/07/05 01:59:50;;;;;;;2.80;2.30;;;;;;;24.54;54.13;97149.75;4998487;28;20221;-27
2023/07/05 02:02:17;;;;;;;2.50;2.30;;;;;;;24.55;54.07;97138.59;5001796;28;20272;-27
2023/07/05 02:04:44;;;;;;;2.43;2.23;;;;;;;24.55;53.85;97128.34;5004681;28;20280;-26
2023/07/05 02:07:10;;;;;;;2.90;2.33;;;;;;;24.54;54.30;97117.19;5030965;28;20201;-27
2023/07/05 02:09:37;;;;;;;2.87;2.20;;;;;;;24.55;53.99;97133.47;5001813;28;20248;-27
2023/07/05 02:12:07;;;;;;;2.27;2.07;;;;;;;24.55;53.75;97126.63;5030228;28;20222;-27
2023/07/05 02:14:38;;;;;;;3.27;2.50;;;;;;;24.55;53.94;97125.75;5011437;28;20194;-27
2023/07/05 02:17:04;;;;;;;3.03;2.37;;;;;;;24.55;53.83;97128.34;5023213;28;20231;-27
2023/07/05 02:19:31;;;;;;;2.40;2.10;;;;;;;24.55;53.78;97118.94;5007495;28;20700;-27
2023/07/05 02:21:58;;;;;;;2.30;2.10;;;;;;;24.55;53.84;97105.22;5021525;28;20247;-26
2023/07/05 02:24:24;;;;;;;2.40;2.20;;;;;;;24.53;53.92;97104.31;5019572;28;20264;-26
2023/07/05 02:26:54;;;;;;;2.40;2.20;;;;;;;24.55;54.16;97107.78;5027132;28;20206;-26
2023/07/05 02:29:22;;;;;;;2.30;2.10;;;;;;;24.56;53.78;97096.66;5023454;28;20237;-26
2023/07/05 02:31:49;;;;;;;2.50;2.30;;;;;;;24.55;54.08;97089.78;5016488;28;20662;-26
2023/07/05 02:34:15;;;;;;;2.27;2.00;;;;;;;24.55;53.68;97072.69;5022670;28;20656;-25
2023/07/05 02:36:42;;;;;;;2.47;2.27;;;;;;;24.55;53.81;97059.84;5025362;28;20232;-26
2023/07/05 02:39:09;;;;;;;2.90;2.40;;;;;;;24.55;54.28;97052.13;5021448;28;20249;-26
2023/07/05 02:41:35;;;;;;;2.67;2.30;;;;;;;24.56;54.16;97056.41;5025383;28;20225;-26
2023/07/05 02:44:02;;;;;;;2.20;2.00;;;;;;;24.56;54.18;97043.56;5025419;28;20556;-26
2023/07/05 02:46:29;;;;;;;2.40;2.20;;;;;;;24.57;54.17;97041.88;5023032;28;20221;-26
2023/07/05 02:48:57;;;;;;;4.47;2.40;;;;;;;24.55;54.21;97039.28;5026955;28;20198;-26
2023/07/05 02:51:26;;;;;;;2.33;2.13;;;;;;;24.56;54.38;97035.84;5021765;28;20224;-26
2023/07/05 02:53:53;;;;;;;2.83;2.53;;;;;;;24.56;54.13;97038.44;5009409;28;20208;-26
2023/07/05 02:56:20;;;;;;;2.67;2.30;;;;;;;24.56;54.19;97030.72;5022287;28;20293;-25
2023/07/05 02:58:47;;;;;;;2.40;2.20;;;;;;;24.56;54.31;97030.72;5018581;28;20206;-26
2023/07/05 03:01:13;;;;;;;2.30;2.10;;;;;;;24.56;54.03;97045.25;5024556;28;20197;-26
2023/07/05 03:03:40;;;;;;;2.33;2.13;;;;;;;24.57;54.02;97047.84;5025356;28;20198;-26
2023/07/05 03:06:06;;;;;;;2.57;2.37;;;;;;;24.57;53.76;97052.16;5033715;28;20741;-26
2023/07/05 03:08:33;;;;;;;2.50;2.30;;;;;;;24.57;54.34;97063.25;5024171;28;20304;-26
2023/07/05 03:11:00;;;;;;;2.40;1.93;;;;;;;24.57;54.26;97058.13;5024364;28;20625;-26
2023/07/05 03:13:28;;;;;;;2.50;2.30;;;;;;;24.57;54.06;97059.84;5027503;28;20248;-26
2023/07/05 03:15:55;;;;;;;2.43;2.23;;;;;;;24.57;54.04;97060.69;5030959;28;20201;-26
2023/07/05 03:18:22;;;;;;;2.10;1.90;;;;;;;24.58;54.26;97066.69;5028477;28;20208;-26
2023/07/05 03:20:48;;;;;;;2.43;2.23;;;;;;;24.57;53.94;97065.00;5022495;28;20712;-26
2023/07/05 03:23:15;;;;;;;2.27;2.07;;;;;;;24.58;53.88;97064.13;5029184;28;20438;-26
2023/07/05 03:25:56;;;;;;;2.30;2.10;;;;;;;24.57;53.98;97065.00;5026178;28;20197;-26
2023/07/05 03:28:27;;;;;;;2.27;2.10;;;;;;;24.57;53.90;97063.25;5012141;28;20206;-26
2023/07/05 03:31:13;;;;;;;2.60;2.23;;;;;;;24.57;53.83;97068.41;5018410;28;20198;-26
2023/07/05 03:33:40;;;;;;;1.93;1.83;;;;;;;24.57;53.94;97073.53;5026234;28;20244;-25
2023/07/05 03:36:12;;;;;;;2.43;2.23;;;;;;;24.57;53.99;97068.41;5025416;28;20256;-26
2023/07/05 03:38:39;;;;;;;2.23;2.03;;;;;;;24.56;54.15;97079.53;5026143;28;20200;-26
2023/07/05 03:41:08;;;;;;;2.03;1.83;;;;;;;24.57;54.19;97077.84;5023887;28;20758;-26
2023/07/05 03:43:35;;;;;;;1.90;1.80;;;;;;;24.55;54.23;97087.22;5030240;28;20656;-26
2023/07/05 03:46:03;;;;;;;2.10;1.90;;;;;;;24.55;54.09;97088.09;5025576;28;20292;-26
2023/07/05 03:48:32;;;;;;;2.40;2.20;;;;;;;24.56;54.00;97094.06;5027636;28;20609;-26
2023/07/05 03:51:01;;;;;;;2.30;2.10;;;;;;;24.53;54.13;97091.47;5024118;28;20664;-26
2023/07/05 03:53:28;;;;;;;2.50;2.30;;;;;;;24.54;53.96;97088.09;5025880;28;20236;-26
2023/07/05 03:56:01;;;;;;;2.50;2.30;;;;;;;24.54;54.22;97093.22;5031467;28;20343;-26
2023/07/05 03:58:28;;;;;;;2.60;2.30;;;;;;;24.53;54.42;97087.22;5029240;28;20248;-25
2023/07/05 04:01:06;;;;;;;2.50;2.30;;;;;;;24.53;54.27;97079.50;5028181;28;20304;-26
2023/07/05 04:03:33;;;;;;;3.27;2.00;;;;;;;24.53;54.47;97078.63;5028345;28;20193;-26
2023/07/05 04:06:03;;;;;;;4.03;2.20;;;;;;;24.52;54.62;97085.50;5030579;28;20197;-25
2023/07/05 04:08:30;;;;;;;2.50;2.23;;;;;;;24.54;54.18;97088.91;5023540;28;20207;-26
2023/07/05 04:10:56;;;;;;;2.30;2.13;;;;;;;24.54;54.13;97095.78;5023397;28;20249;-26
2023/07/05 04:13:23;;;;;;;2.67;2.30;;;;;;;24.55;54.25;97105.22;5027020;28;20233;-26
2023/07/05 04:16:16;;;;;;;2.57;2.37;;;;;;;24.54;54.49;97091.50;5029823;28;20209;-25
2023/07/05 04:18:43;;;;;;;2.33;2.13;;;;;;;24.54;54.46;97088.09;5022664;28;20611;-26
2023/07/05 04:21:10;;;;;;;2.50;2.20;;;;;;;24.55;53.95;97093.25;5029923;28;20222;-26
2023/07/05 04:23:40;;;;;;;2.00;1.90;;;;;;;24.56;53.94;97084.66;5024762;28;20649;-26
2023/07/05 04:26:09;;;;;;;2.43;2.23;;;;;;;24.55;54.53;97088.09;5027998;28;20288;-25
2023/07/05 04:28:36;;;;;;;2.30;2.10;;;;;;;24.55;53.89;97100.94;5021346;28;20206;-25
2023/07/05 04:31:03;;;;;;;2.07;1.87;;;;;;;24.57;53.84;97098.38;5026301;28;20659;-25
2023/07/05 04:33:29;;;;;;;2.27;2.07;;;;;;;24.56;54.20;97100.09;5027947;28;20644;-25
2023/07/05 04:35:57;;;;;;;2.20;2.00;;;;;;;24.56;54.24;97096.66;5031294;28;20251;-26
2023/07/05 04:42:10;;;;;;;2.57;2.33;;;;;;;24.53;54.75;97115.47;5029097;28;20228;-26
2023/07/05 04:44:37;;;;;;;3.53;2.37;;;;;;;24.51;54.23;97117.16;5028609;28;20229;-26
2023/07/05 04:47:04;;;;;;;2.40;2.20;;;;;;;24.50;54.75;97112.00;5027028;28;20573;-25
2023/07/05 04:49:34;;;;;;;2.53;2.33;;;;;;;24.47;54.66;97130.81;5023561;28;20677;-26
2023/07/05 04:52:00;;;;;;;3.17;2.30;;;;;;;24.44;54.67;97132.47;5024854;28;20312;-25
2023/07/05 04:54:27;;;;;;;2.60;2.33;;;;;;;24.45;54.38;97135.06;5026293;28;20202;-26
2023/07/05 04:56:54;;;;;;;3.63;2.00;;;;;;;24.44;54.43;97135.91;5020787;28;20233;-26
2023/07/05 04:59:21;;;;;;;2.47;2.27;;;;;;;24.43;54.50;97139.34;5031096;28;20285;-25
2023/07/05 05:01:48;;;;;;;2.30;2.10;;;;;;;24.43;54.75;97139.34;5026520;28;20502;-26
2023/07/05 05:04:15;;;;;;;2.47;2.10;;;;;;;24.43;54.67;97147.06;5015879;28;20209;-26
2023/07/05 05:06:43;;;;;;;2.30;2.10;;;;;;;24.39;54.84;97150.41;5029158;28;20194;-26
2023/07/05 05:09:09;;;;;;;2.40;2.20;;;;;;;24.39;55.10;97168.38;5027090;28;20639;-26
2023/07/05 05:11:36;;;;;;;2.53;2.30;;;;;;;24.38;54.85;97186.34;5029658;28;20704;-26
2023/07/05 05:14:02;;;;;;;5.27;2.13;;;;;;;24.37;54.71;97208.59;5022940;28;20292;-26
2023/07/05 05:16:29;;;;;;;4.03;2.30;;;;;;;24.35;54.79;97228.28;5022212;28;20202;-26
2023/07/05 05:18:56;;;;;;;7.83;2.07;;;;;;;24.33;54.88;97245.34;5029667;28;20553;-26
2023/07/05 05:21:22;;;;;;;2.67;2.20;;;;;;;24.31;54.87;97252.16;5024711;28;20305;-26
2023/07/05 05:23:49;;;;;;;3.07;2.30;;;;;;;24.27;55.01;97244.41;5030204;28;20232;-26
2023/07/05 05:26:15;;;;;;;1.90;1.80;;;;;;;24.28;54.86;97259.00;5031144;28;20294;-26
2023/07/05 05:28:42;;;;;;;3.57;2.20;;;;;;;24.26;54.74;97274.38;5028541;28;20197;-26
2023/07/05 05:31:10;;;;;;;2.50;2.20;;;;;;;24.23;55.19;97286.28;5021686;28;20630;-26
2023/07/05 05:33:36;;;;;;;2.10;1.90;;;;;;;24.24;54.88;97308.56;5031075;28;20694;-26
2023/07/05 05:36:03;;;;;;;3.10;2.07;;;;;;;24.18;55.21;97311.91;5030978;28;20715;-25
2023/07/05 05:38:30;;;;;;;3.23;2.23;;;;;;;24.24;55.18;97318.84;5031134;28;20561;-26
2023/07/05 05:41:01;;;;;;;2.80;2.47;;;;;;;24.22;55.15;97323.09;5025953;28;20727;-26
2023/07/05 05:43:27;;;;;;;2.40;2.20;;;;;;;24.24;55.18;97329.09;5026276;28;20634;-26
2023/07/05 05:45:54;;;;;;;2.40;2.20;;;;;;;24.25;55.15;97318.00;5023248;28;20210;-26
2023/07/05 05:48:20;;;;;;;4.03;2.20;;;;;;;24.25;55.09;97328.28;5027579;28;20252;-26
2023/07/05 05:50:48;;;;;;;2.53;2.10;;;;;;;24.25;55.07;97333.41;5025667;28;20232;-26
2023/07/05 05:53:14;;;;;;;2.30;2.10;;;;;;;24.25;54.94;97329.13;5021756;28;20309;-26
2023/07/05 05:55:41;;;;;;;2.10;1.80;;;;;;;24.24;55.12;97323.97;5031521;28;20205;-25
2023/07/05 05:58:08;;;;;;;2.73;2.27;;;;;;;24.23;54.97;97330.81;5023004;28;20209;-26
2023/07/05 06:00:34;;;;;;;2.30;2.10;;;;;;;24.23;55.13;97319.69;5029426;28;20214;-25
2023/07/05 06:03:01;;;;;;;2.30;2.10;;;;;;;24.21;55.08;97299.13;5030641;28;20213;-26
2023/07/05 06:05:28;;;;;;;2.73;2.50;;;;;;;24.21;55.20;97295.66;5018451;28;20628;-26
2023/07/05 06:07:55;;;;;;;2.80;2.30;;;;;;;24.19;55.22;97289.66;5030978;28;20240;-25
2023/07/05 06:10:24;;;;;;;2.30;2.10;;;;;;;24.18;55.08;97288.78;5027845;28;20277;-26
2023/07/05 06:12:50;;;;;;;3.57;2.10;;;;;;;24.19;55.33;97274.25;5026285;28;20264;-26
2023/07/05 06:15:17;;;;;;;3.40;2.30;;;;;;;24.16;55.29;97264.78;5026854;28;20898;-25
2023/07/05 06:17:43;;;;;;;3.00;2.20;;;;;;;24.16;55.53;97258.81;5024683;28;20249;-26
2023/07/05 06:20:10;;;;;;;2.20;2.00;;;;;;;24.17;55.30;97239.97;5025866;28;20221;-26
2023/07/05 06:22:38;;;;;;;3.10;2.20;;;;;;;24.15;55.53;97227.13;5026651;28;20279;-26
2023/07/05 06:25:05;;;;;;;2.70;1.80;;;;;;;24.16;55.21;97243.41;5030117;28;20286;-26
2023/07/05 06:27:32;;;;;;;2.47;2.27;;;;;;;24.16;55.02;97253.69;5019562;28;20237;-26
2023/07/05 06:29:59;;;;;;;3.23;2.10;;;;;;;24.16;55.07;97258.81;5022275;28;20692;-26
2023/07/05 06:32:26;;;;;;;3.93;2.33;;;;;;;24.18;55.29;97259.69;5015521;28;20225;-26
2023/07/05 06:34:52;;;;;;;2.73;2.40;;;;;;;24.18;55.87;97250.28;5029829;28;20693;-26
2023/07/05 06:37:19;;;;;;;5.13;2.40;;;;;;;24.19;56.12;97254.56;5029661;28;20626;-26
2023/07/05 06:39:46;;;;;;;4.47;2.40;;;;;;;24.20;55.82;97240.91;5034865;28;20286;-26
2023/07/05 06:42:13;;;;;;;2.70;2.17;;;;;;;24.21;56.26;97244.31;5020869;28;20279;-26
2023/07/05 06:44:39;;;;;;;3.80;2.40;;;;;;;24.20;56.33;97243.47;5024243;28;20724;-26
2023/07/05 06:47:06;;;;;;;2.93;2.30;;;;;;;24.18;56.16;97231.44;5022812;28;20293;-26
2023/07/05 06:49:33;;;;;;;4.87;2.30;;;;;;;24.22;56.34;97233.22;5030103;28;20213;-26
2023/07/05 06:51:59;;;;;;;2.43;1.90;;;;;;;24.18;56.08;97224.59;5033350;28;20585;-26
2023/07/05 06:54:26;;;;;;;2.27;1.90;;;;;;;24.22;56.33;97235.78;5026132;28;20272;-26
2023/07/05 06:56:52;;;;;;;4.10;2.30;;;;;;;24.21;56.60;97237.47;5032252;28;20205;-26
2023/07/05 06:59:19;;;;;;;5.87;2.57;;;;;;;24.21;56.29;97249.44;5033615;28;20202;-25
2023/07/05 07:01:46;;;;;;;3.53;2.00;;;;;;;24.21;56.40;97255.47;5019947;28;20276;-26
2023/07/05 07:04:12;;;;;;;2.30;2.10;;;;;;;24.21;56.38;97257.16;5032177;28;20197;-26
2023/07/05 07:06:39;;;;;;;4.50;2.00;;;;;;;24.20;56.59;97258.00;5034628;28;20271;-26
2023/07/05 07:09:06;;;;;;;5.07;2.37;;;;;;;24.18;56.58;97263.13;5033636;28;20551;-26
2023/07/05 07:11:32;;;;;;;2.67;2.00;;;;;;;24.20;56.62;97258.88;5028651;28;20743;-26
2023/07/05 07:13:59;;;;;;;3.33;2.33;;;;;;;24.19;56.85;97262.25;5022906;28;20571;-26
2023/07/05 07:16:26;;;;;;;4.10;2.13;;;;;;;24.19;56.58;97261.44;5017573;28;20201;-26
2023/07/05 07:18:52;;;;;;;3.70;2.10;;;;;;;24.19;56.92;97257.13;5003551;28;20257;-26
2023/07/05 07:21:19;;;;;;;2.23;2.03;;;;;;;24.20;56.77;97264.00;5033120;28;20229;-26
2023/07/05 07:23:47;;;;;;;3.27;2.20;;;;;;;24.20;56.63;97260.56;5033664;28;20626;-26
2023/07/05 07:26:18;;;;;;;3.00;2.00;;;;;;;24.20;56.53;97261.44;5033963;28;20233;-26
2023/07/05 07:28:54;;;;;;;2.37;2.03;;;;;;;24.21;56.61;97268.31;5033510;28;20236;-25
2023/07/05 07:31:29;;;;;;;2.00;1.70;;;;;;;24.23;56.99;97268.31;5032434;28;20217;-26
2023/07/05 07:33:56;;;;;;;2.60;2.20;;;;;;;24.23;56.89;97256.34;5033233;28;20209;-26
2023/07/05 07:36:27;;;;;;;2.73;2.00;;;;;;;24.24;56.91;97259.75;5032334;28;20228;-26
2023/07/05 07:38:54;;;;;;;2.37;2.13;;;;;;;24.13;57.24;97240.78;5026684;28;20202;-26
2023/07/05 07:41:21;;;;;;;2.20;2.00;;;;;;;24.23;57.08;97258.03;5033191;28;20229;-25
2023/07/05 07:43:51;;;;;;;2.33;1.80;;;;;;;24.23;57.01;97252.91;5033354;28;20217;-26
2023/07/05 07:46:19;;;;;;;2.20;2.00;;;;;;;24.22;57.42;97258.91;5034327;28;20581;-26
2023/07/05 07:48:47;;;;;;;3.00;2.17;;;;;;;24.23;57.89;97261.50;5030860;28;20198;-25
2023/07/05 07:51:14;;;;;;;3.17;2.20;;;;;;;24.21;58.00;97250.31;5027077;28;20257;-25
2023/07/05 07:54:01;;;;;;;2.70;2.10;;;;;;;24.21;58.56;97254.59;5031623;28;20255;-25
2023/07/05 07:56:27;;;;;;;2.20;1.80;;;;;;;24.21;58.38;97252.88;5021322;28;20252;-26
2023/07/05 07:58:55;;;;;;;3.17;1.80;;;;;;;24.21;58.65;97252.00;5027958;28;20288;-26
2023/07/05 08:01:26;;;;;;;2.80;2.13;;;;;;;24.21;58.62;97246.88;5023580;28;20297;-26
2023/07/05 08:03:53;;;;;;;3.07;2.03;;;;;;;24.20;58.71;97240.91;5032510;28;20672;-25
2023/07/05 08:06:20;;;;;;;4.60;1.97;;;;;;;24.19;58.18;97244.28;5025283;28;20201;-26
2023/07/05 08:08:46;;;;;;;2.90;2.10;;;;;;;24.20;57.46;97245.16;5029218;28;20293;-26
2023/07/05 08:11:13;;;;;;;2.70;1.93;;;;;;;24.21;57.41;97249.44;5009418;28;20229;-26
2023/07/05 08:13:40;;;;;;;3.67;2.20;;;;;;;24.22;57.25;97240.94;5026329;28;20244;-26
2023/07/05 08:16:08;;;;;;;3.10;1.70;;;;;;;24.22;57.25;97238.34;5032946;28;20324;-26
2023/07/05 08:18:35;;;;;;;2.07;1.90;;;;;;;24.24;57.24;97231.50;5032535;28;20198;-26
2023/07/05 08:21:02;;;;;;;1.77;1.60;;;;;;;24.26;56.87;97229.84;5032122;28;20214;-26
2023/07/05 08:23:29;;;;;;;1.80;1.60;;;;;;;24.26;57.05;97228.16;5033176;22;20701;-28
2023/07/05 08:25:55;;;;;;;2.30;1.80;;;;;;;24.29;57.11;97224.75;5013979;28;20280;-28
2023/07/05 08:28:22;;;;;;;2.20;2.00;;;;;;;24.29;56.65;97225.63;5003406;28;20264;-28
2023/07/05 08:30:53;;;;;;;2.10;1.90;;;;;;;24.32;56.65;97223.09;5013686;28;20210;-28
2023/07/05 08:33:22;;;;;;;3.07;1.93;;;;;;;24.33;56.79;97217.09;4997145;28;20235;-28
2023/07/05 08:36:04;;;;;;;2.13;1.63;;;;;;;24.35;56.72;97209.41;4998946;28;20298;-28
2023/07/05 08:38:30;;;;;;;3.37;1.80;;;;;;;24.33;56.33;97211.97;4990974;28;20623;-27
2023/07/05 08:41:05;;;;;;;2.47;1.77;;;;;;;24.36;56.42;97206.00;4992782;28;20230;-29
2023/07/05 08:43:39;;;;;;;1.77;1.60;;;;;;;24.35;56.20;97194.88;4992668;28;20257;-28
2023/07/05 08:46:08;;;;;;;2.53;1.70;;;;;;;24.35;56.22;97202.59;4982657;28;20218;-28
2023/07/05 08:48:35;;;;;;;2.00;1.60;;;;;;;24.38;56.30;97196.63;4992798;28;20624;-28
2023/07/05 08:51:01;;;;;;;5.20;1.90;;;;;;;24.36;56.11;97188.91;4974556;28;20235;-28
2023/07/05 08:53:52;;;;;;;2.53;1.70;;;;;;;24.40;56.32;97200.09;4969541;28;20227;-28
2023/07/05 08:56:21;;;;;;;2.10;1.90;;;;;;;24.39;56.19;97196.63;4990565;28;20232;-28
2023/07/05 08:58:57;;;;;;;2.20;1.77;;;;;;;24.40;56.17;97195.81;4971312;28;20211;-29
2023/07/05 09:01:32;;;;;;;2.07;1.70;;;;;;;24.41;56.25;97192.41;4992010;28;20229;-28
2023/07/05 09:03:58;;;;;;;1.70;1.50;;;;;;;24.42;56.45;97194.09;4985216;28;20290;-28
2023/07/05 09:06:46;;;;;;;3.77;2.00;;;;;;;24.43;56.14;97201.00;4998157;28;20703;-28
2023/07/05 09:09:44;;;;;;;2.40;1.87;;;;;;;24.43;56.31;97193.28;4976067;28;20231;-37
2023/07/05 09:12:34;;;;;;;2.23;1.80;;;;;;;24.44;56.21;97194.13;4965051;28;20266;-28
2023/07/05 09:15:23;;;;;;;2.43;1.87;;;;;;;24.44;55.67;97196.69;4988595;28;20206;-28
2023/07/05 09:17:50;;;;;;;2.27;1.63;;;;;;;24.44;56.08;97197.56;4980181;28;20238;-29
2023/07/05 09:20:31;;;;;;;2.07;1.50;;;;;;;24.44;55.57;97195.00;4992019;28;20207;-27
2023/07/05 09:22:59;;;;;;;1.50;1.40;;;;;;;24.45;55.50;97199.28;4992167;28;20288;-28
2023/07/05 09:25:25;;;;;;;1.93;1.60;;;;;;;24.45;55.53;97193.31;4976337;28;20203;-28
2023/07/05 09:28:20;;;;;;;2.10;1.80;;;;;;;24.45;55.82;97194.16;4977875;28;20206;-28
2023/07/05 09:30:47;;;;;;;1.70;1.60;;;;;;;24.44;55.52;97183.84;4976863;28;20195;-27
2023/07/05 09:33:23;;;;;;;2.33;1.63;;;;;;;24.44;55.43;97189.88;4985096;28;20228;-29
2023/07/05 09:35:51;;;;;;;2.37;1.50;;;;;;;24.45;55.99;97189.00;4971992;28;20210;-29
2023/07/05 09:38:33;;;;;;;2.60;1.73;;;;;;;24.46;55.63;97185.63;4992796;28;20728;-28
2023/07/05 09:41:14;;;;;;;1.97;1.47;;;;;;;24.45;55.87;97183.88;4971612;28;20305;-30
2023/07/05 09:43:40;;;;;;;1.70;1.60;;;;;;;24.45;55.67;97180.47;4987903;28;20230;-32
2023/07/05 09:46:14;;;;;;;2.03;1.70;;;;;;;24.42;55.51;97181.25;4995702;28;20207;-31
2023/07/05 09:48:43;;;;;;;1.80;1.40;;;;;;;24.42;55.68;97178.69;4967511;28;20214;-28
2023/07/05 09:51:11;;;;;;;1.97;1.50;;;;;;;24.41;55.58;97179.56;4992509;28;20199;-28
2023/07/05 09:53:44;;;;;;;2.17;1.97;;;;;;;24.43;57.44;97177.00;4991623;28;20218;-28
2023/07/05 09:56:15;;;;;;;1.63;1.53;;;;;;;24.46;59.24;97192.44;4974491;28;20210;-36
2023/07/05 09:58:45;;;;;;;1.70;1.40;;;;;;;24.45;59.60;97180.47;4981724;28;20266;-28
2023/07/05 10:01:19;;;;;;;2.30;1.70;;;;;;;24.48;59.57;97186.47;4989806;28;20272;-28
2023/07/05 10:03:57;;;;;;;1.60;1.50;;;;;;;24.45;58.72;97176.16;4991310;28;20262;-28
2023/07/05 10:06:24;;;;;;;1.90;1.70;;;;;;;24.48;58.25;97190.78;4991436;28;20640;-28
2023/07/05 10:08:51;;;;;;;2.80;1.80;;;;;;;24.49;57.57;97189.91;4975354;28;20668;-28
2023/07/05 10:11:33;;;;;;;1.90;1.80;;;;;;;24.48;57.33;97189.03;4992118;28;20202;-28
2023/07/05 10:14:10;;;;;;;1.60;1.40;;;;;;;24.48;57.48;97177.94;4992585;28;20305;-29
2023/07/05 10:16:53;;;;;;;2.07;1.60;;;;;;;24.48;57.33;97195.91;4990202;28;20206;-28
2023/07/05 10:19:20;;;;;;;1.60;1.50;;;;;;;24.48;56.93;97284.09;4992370;28;20207;-28
2023/07/05 10:21:48;;;;;;;1.57;1.47;;;;;;;24.47;56.59;97299.50;4991693;28;20705;-28
2023/07/05 10:24:17;;;;;;;1.33;1.23;;;;;;;24.49;56.87;97328.66;4990270;28;20593;-28
2023/07/05 10:26:43;;;;;;;2.90;1.50;;;;;;;24.51;56.38;97325.25;4971234;28;20203;-28
2023/07/05 10:29:10;;;;;;;1.40;1.30;;;;;;;24.49;56.58;97337.22;4977486;28;20737;-28
2023/07/05 10:31:36;;;;;;;1.30;1.20;;;;;;;24.51;56.53;97309.00;4979063;28;20645;-28
2023/07/05 10:34:19;;;;;;;1.30;1.20;;;;;;;24.50;56.17;97302.97;4991692;28;20222;-28
2023/07/05 10:36:46;;;;;;;1.67;1.57;;;;;;;24.51;56.58;97302.13;4989265;28;20195;-28
2023/07/05 10:39:23;;;;;;;1.57;1.47;;;;;;;24.48;56.02;97291.81;4995996;28;20235;-28
2023/07/05 10:41:51;;;;;;;1.43;1.33;;;;;;;24.51;56.26;97296.16;4979628;28;20572;-28
2023/07/05 10:44:30;;;;;;;1.90;1.37;;;;;;;24.52;55.99;97318.41;4988258;28;20262;-28
2023/07/05 10:46:57;;;;;;;1.50;1.40;;;;;;;24.52;55.76;97313.28;4978915;28;20208;-28
2023/07/05 10:49:23;;;;;;;1.50;1.40;;;;;;;24.53;55.88;97315.00;4994105;28;20249;-28
2023/07/05 10:51:55;;;;;;;1.67;1.57;;;;;;;24.50;56.06;97307.25;4978455;28;20233;-29
2023/07/05 10:55:13;;;;;;;1.50;1.40;;;;;;;24.53;55.98;97330.41;4989449;28;20295;-28
2023/07/05 10:58:12;;;;;;;1.43;1.33;;;;;;;24.53;55.71;97320.13;4934483;29;20200;-28
2023/07/05 11:00:41;;;;;;;1.50;1.40;;;;;;;24.51;55.49;97325.25;4948770;28;20254;-28
2023/07/05 11:03:15;;;;;;;1.50;1.40;;;;;;;24.51;55.58;97338.09;4960536;28;20263;-28
2023/07/05 11:05:45;;;;;;;2.07;1.50;;;;;;;24.52;55.90;97334.72;4989317;28;20293;-28
2023/07/05 11:08:31;;;;;;;1.40;1.30;;;;;;;24.52;55.91;97333.84;4970919;28;20251;-28
2023/07/05 11:11:00;;;;;;;1.37;1.27;;;;;;;24.53;55.86;97340.69;4989468;28;20203;-28
2023/07/05 11:13:30;;;;;;;1.40;1.30;;;;;;;24.50;55.52;97328.66;4968160;28;20261;-28
2023/07/05 11:15:56;;;;;;;1.30;1.20;;;;;;;24.53;55.49;97325.28;4994831;28;20397;-31
2023/07/05 11:18:26;;;;;;;2.40;1.47;;;;;;;24.51;55.79;97326.97;4970386;28;20215;-29
2023/07/05 11:20:56;;;;;;;1.40;1.30;;;;;;;24.50;55.61;97327.78;4973895;28;20674;-28
2023/07/05 11:23:41;;;;;;;1.27;1.17;;;;;;;24.52;55.51;97321.88;4986353;28;20227;-29
2023/07/05 11:26:08;;;;;;;1.60;1.50;;;;;;;24.53;55.59;97327.84;4987463;28;20233;-28
2023/07/05 11:28:40;;;;;;;1.73;1.60;;;;;;;24.53;55.35;97320.13;4988992;28;20200;-28
2023/07/05 11:31:30;;;;;;;1.50;1.40;;;;;;;24.53;55.41;97320.13;4987469;28;20207;-30
2023/07/05 11:34:21;;;;;;;1.40;1.30;;;;;;;24.54;55.51;97306.47;4988216;28;20288;-28
2023/07/05 11:37:08;;;;;;;1.40;1.30;;;;;;;24.53;55.27;97305.59;4986124;28;20200;-27
2023/07/05 11:39:35;;;;;;;1.33;1.27;;;;;;;24.54;55.38;97307.31;4956316;28;20290;-29
2023/07/05 11:42:14;;;;;;;1.30;1.20;;;;;;;24.55;55.18;97303.03;4985964;28;20318;-28
2023/07/05 11:44:44;;;;;;;1.37;1.27;;;;;;;24.54;55.64;97307.31;4983923;28;20194;-28
2023/07/05 11:47:33;;;;;;;1.40;1.30;;;;;;;24.55;55.64;97297.91;4984594;28;20199;-28
2023/07/05 11:50:14;;;;;;;1.50;1.30;;;;;;;24.54;55.59;97309.03;4979565;28;20214;-28
2023/07/05 11:52:50;;;;;;;1.17;1.07;;;;;;;24.54;55.60;97296.19;4986460;28;20720;-28
2023/07/05 11:55:19;;;;;;;1.57;1.47;;;;;;;24.55;55.54;97308.19;4983535;28;20201;-28